sensor_id;sensor_type;location;lat;lon;timestamp;temperature;humidity
27567;DHT22;15006;48.584;9.186;2023-02-28T00:01:24;-4.50;81.70
27567;DHT22;15006;48.584;9.186;2023-02-28T00:03:53;-4.50;81.70
27567;DHT22;15006;48.584;9.186;2023-02-28T00:06:22;-4.50;81.80
27567;DHT22;15006;48.584;9.186;2023-02-28T00:08:51;-4.50;81.90
27567;DHT22;15006;48.584;9.186;2023-02-28T00:11:20;-4.50;82.00
27567;DHT22;15006;48.584;9.186;2023-02-28T00:13:48;-4.50;82.00
27567;DHT22;15006;48.584;9.186;2023-02-28T00:16:19;-4.50;82.10
27567;DHT22;15006;48.584;9.186;2023-02-28T00:18:48;-4.60;82.10
27567;DHT22;15006;48.584;9.186;2023-02-28T00:21:17;-4.60;82.40
27567;DHT22;15006;48.584;9.186;2023-02-28T00:23:46;-4.60;82.30
27567;DHT22;15006;48.584;9.186;2023-02-28T00:26:15;-4.50;82.50
27567;DHT22;15006;48.584;9.186;2023-02-28T00:28:44;-4.60;82.30
27567;DHT22;15006;48.584;9.186;2023-02-28T00:31:12;-4.60;82.50
27567;DHT22;15006;48.584;9.186;2023-02-28T00:33:40;-4.60;82.50
27567;DHT22;15006;48.584;9.186;2023-02-28T00:36:10;-4.60;82.50
27567;DHT22;15006;48.584;9.186;2023-02-28T00:38:40;-4.60;82.30
27567;DHT22;15006;48.584;9.186;2023-02-28T00:41:09;-4.60;82.40
27567;DHT22;15006;48.584;9.186;2023-02-28T00:43:39;-4.60;82.10
27567;DHT22;15006;48.584;9.186;2023-02-28T00:46:07;-4.60;82.50
27567;DHT22;15006;48.584;9.186;2023-02-28T00:48:36;-4.60;82.60
27567;DHT22;15006;48.584;9.186;2023-02-28T00:51:04;-4.60;82.60
27567;DHT22;15006;48.584;9.186;2023-02-28T00:53:35;-4.60;82.70
27567;DHT22;15006;48.584;9.186;2023-02-28T00:56:01;-4.60;82.70
27567;DHT22;15006;48.584;9.186;2023-02-28T00:58:28;-4.60;82.70
27567;DHT22;15006;48.584;9.186;2023-02-28T01:00:54;-4.60;82.70
27567;DHT22;15006;48.584;9.186;2023-02-28T01:03:21;-4.60;82.90
27567;DHT22;15006;48.584;9.186;2023-02-28T01:05:48;-4.60;83.00
27567;DHT22;15006;48.584;9.186;2023-02-28T01:08:14;-4.60;83.00
27567;DHT22;15006;48.584;9.186;2023-02-28T01:10:41;-4.60;82.90
27567;DHT22;15006;48.584;9.186;2023-02-28T01:13:07;-4.60;83.00
27567;DHT22;15006;48.584;9.186;2023-02-28T01:15:33;-4.60;83.00
27567;DHT22;15006;48.584;9.186;2023-02-28T01:17:59;-4.60;83.00
27567;DHT22;15006;48.584;9.186;2023-02-28T01:20:26;-4.60;83.10
27567;DHT22;15006;48.584;9.186;2023-02-28T01:22:52;-4.60;83.10
27567;DHT22;15006;48.584;9.186;2023-02-28T01:25:18;-4.60;83.20
27567;DHT22;15006;48.584;9.186;2023-02-28T01:27:43;-4.60;83.30
27567;DHT22;15006;48.584;9.186;2023-02-28T01:30:10;-4.60;83.40
27567;DHT22;15006;48.584;9.186;2023-02-28T01:32:36;-4.60;83.40
27567;DHT22;15006;48.584;9.186;2023-02-28T01:35:03;-4.60;83.50
27567;DHT22;15006;48.584;9.186;2023-02-28T01:37:29;-4.60;83.50
27567;DHT22;15006;48.584;9.186;2023-02-28T01:39:56;-4.60;83.50
27567;DHT22;15006;48.584;9.186;2023-02-28T01:42:23;-4.60;83.60
27567;DHT22;15006;48.584;9.186;2023-02-28T01:47:55;-4.60;82.90
27567;DHT22;15006;48.584;9.186;2023-02-28T01:50:31;-4.60;83.50
27567;DHT22;15006;48.584;9.186;2023-02-28T01:53:02;-4.60;83.50
27567;DHT22;15006;48.584;9.186;2023-02-28T01:55:30;-4.60;83.50
27567;DHT22;15006;48.584;9.186;2023-02-28T01:58:00;-4.60;83.70
27567;DHT22;15006;48.584;9.186;2023-02-28T02:00:29;-4.60;83.40
27567;DHT22;15006;48.584;9.186;2023-02-28T02:02:59;-4.60;83.70
27567;DHT22;15006;48.584;9.186;2023-02-28T02:05:41;-4.60;83.80
27567;DHT22;15006;48.584;9.186;2023-02-28T02:08:28;-4.60;84.10
27567;DHT22;15006;48.584;9.186;2023-02-28T02:11:01;-4.60;83.30
27567;DHT22;15006;48.584;9.186;2023-02-28T02:37:25;-4.50;84.20
27567;DHT22;15006;48.584;9.186;2023-02-28T02:40:05;-4.50;84.50
27567;DHT22;15006;48.584;9.186;2023-02-28T02:45:38;-4.50;83.50
27567;DHT22;15006;48.584;9.186;2023-02-28T02:48:08;-4.50;83.80
27567;DHT22;15006;48.584;9.186;2023-02-28T02:50:43;-4.50;84.60
27567;DHT22;15006;48.584;9.186;2023-02-28T02:53:12;-4.50;84.10
27567;DHT22;15006;48.584;9.186;2023-02-28T02:55:44;-4.50;84.80
27567;DHT22;15006;48.584;9.186;2023-02-28T02:58:18;-4.50;84.70
27567;DHT22;15006;48.584;9.186;2023-02-28T03:00:54;-4.50;84.60
27567;DHT22;15006;48.584;9.186;2023-02-28T03:03:22;-4.50;84.90
27567;DHT22;15006;48.584;9.186;2023-02-28T03:05:56;-4.50;85.20
27567;DHT22;15006;48.584;9.186;2023-02-28T03:08:23;-4.50;85.30
27567;DHT22;15006;48.584;9.186;2023-02-28T03:10:51;-4.50;85.50
27567;DHT22;15006;48.584;9.186;2023-02-28T03:25:30;-4.40;85.40
27567;DHT22;15006;48.584;9.186;2023-02-28T03:31:06;-4.40;85.80
27567;DHT22;15006;48.584;9.186;2023-02-28T03:34:04;-4.30;85.30
27567;DHT22;15006;48.584;9.186;2023-02-28T03:36:39;-4.30;85.90
27567;DHT22;15006;48.584;9.186;2023-02-28T03:39:36;-4.30;85.80
27567;DHT22;15006;48.584;9.186;2023-02-28T03:42:15;-4.30;84.90
27567;DHT22;15006;48.584;9.186;2023-02-28T03:44:54;-4.20;85.80
27567;DHT22;15006;48.584;9.186;2023-02-28T03:47:35;-4.20;86.20
27567;DHT22;15006;48.584;9.186;2023-02-28T03:52:39;-4.20;83.80
27567;DHT22;15006;48.584;9.186;2023-02-28T03:55:11;-4.10;86.70
27567;DHT22;15006;48.584;9.186;2023-02-28T04:00:24;-4.10;86.50
27567;DHT22;15006;48.584;9.186;2023-02-28T04:02:54;-4.10;86.00
27567;DHT22;15006;48.584;9.186;2023-02-28T04:05:21;-4.10;86.90
27567;DHT22;15006;48.584;9.186;2023-02-28T04:07:48;-4.10;86.80
27567;DHT22;15006;48.584;9.186;2023-02-28T04:10:16;-4.10;86.90
27567;DHT22;15006;48.584;9.186;2023-02-28T04:12:45;-4.10;86.90
27567;DHT22;15006;48.584;9.186;2023-02-28T04:15:11;-4.10;87.10
27567;DHT22;15006;48.584;9.186;2023-02-28T04:17:37;-4.10;87.20
27567;DHT22;15006;48.584;9.186;2023-02-28T04:20:03;-4.00;87.20
27567;DHT22;15006;48.584;9.186;2023-02-28T04:22:34;-4.00;87.30
27567;DHT22;15006;48.584;9.186;2023-02-28T04:25:01;-4.00;87.40
27567;DHT22;15006;48.584;9.186;2023-02-28T04:27:27;-4.00;87.20
27567;DHT22;15006;48.584;9.186;2023-02-28T04:29:53;-4.00;87.20
27567;DHT22;15006;48.584;9.186;2023-02-28T04:32:19;-4.00;87.20
27567;DHT22;15006;48.584;9.186;2023-02-28T04:34:45;-3.90;87.40
27567;DHT22;15006;48.584;9.186;2023-02-28T04:37:11;-3.90;87.40
27567;DHT22;15006;48.584;9.186;2023-02-28T04:39:37;-3.90;87.40
27567;DHT22;15006;48.584;9.186;2023-02-28T04:42:03;-3.90;87.40
27567;DHT22;15006;48.584;9.186;2023-02-28T04:44:29;-3.90;87.40
27567;DHT22;15006;48.584;9.186;2023-02-28T04:46:55;-3.90;87.40
27567;DHT22;15006;48.584;9.186;2023-02-28T04:49:21;-3.90;87.50
27567;DHT22;15006;48.584;9.186;2023-02-28T04:51:47;-3.90;87.50
27567;DHT22;15006;48.584;9.186;2023-02-28T04:54:15;-3.90;87.70
27567;DHT22;15006;48.584;9.186;2023-02-28T04:56:43;-3.90;87.60
27567;DHT22;15006;48.584;9.186;2023-02-28T04:59:09;-3.80;87.80
27567;DHT22;15006;48.584;9.186;2023-02-28T05:01:35;-3.80;87.70
27567;DHT22;15006;48.584;9.186;2023-02-28T05:04:03;-3.80;87.80
27567;DHT22;15006;48.584;9.186;2023-02-28T05:06:32;-3.80;87.70
27567;DHT22;15006;48.584;9.186;2023-02-28T05:08:59;-3.80;87.80
27567;DHT22;15006;48.584;9.186;2023-02-28T05:11:33;-3.80;88.00
27567;DHT22;15006;48.584;9.186;2023-02-28T05:14:05;-3.80;87.40
27567;DHT22;15006;48.584;9.186;2023-02-28T05:16:34;-3.80;87.70
27567;DHT22;15006;48.584;9.186;2023-02-28T05:19:00;-3.80;88.10
27567;DHT22;15006;48.584;9.186;2023-02-28T05:21:32;-3.80;88.10
27567;DHT22;15006;48.584;9.186;2023-02-28T05:24:05;-3.80;88.00
27567;DHT22;15006;48.584;9.186;2023-02-28T05:26:37;-3.80;88.20
27567;DHT22;15006;48.584;9.186;2023-02-28T05:29:04;-3.80;87.80
27567;DHT22;15006;48.584;9.186;2023-02-28T05:31:31;-3.80;88.20
27567;DHT22;15006;48.584;9.186;2023-02-28T05:33:57;-3.80;88.30
27567;DHT22;15006;48.584;9.186;2023-02-28T05:36:23;-3.80;88.30
27567;DHT22;15006;48.584;9.186;2023-02-28T05:38:50;-3.80;88.10
27567;DHT22;15006;48.584;9.186;2023-02-28T05:41:18;-3.70;88.20
27567;DHT22;15006;48.584;9.186;2023-02-28T05:43:45;-3.80;88.40
27567;DHT22;15006;48.584;9.186;2023-02-28T05:46:12;-3.70;88.60
27567;DHT22;15006;48.584;9.186;2023-02-28T05:48:39;-3.70;88.60
27567;DHT22;15006;48.584;9.186;2023-02-28T05:51:08;-3.70;88.60
27567;DHT22;15006;48.584;9.186;2023-02-28T05:53:35;-3.70;88.70
27567;DHT22;15006;48.584;9.186;2023-02-28T05:56:01;-3.70;88.60
27567;DHT22;15006;48.584;9.186;2023-02-28T05:58:28;-3.70;88.60
27567;DHT22;15006;48.584;9.186;2023-02-28T06:01:00;-3.70;88.70
27567;DHT22;15006;48.584;9.186;2023-02-28T06:03:27;-3.70;88.20
27567;DHT22;15006;48.584;9.186;2023-02-28T06:05:53;-3.70;88.70
27567;DHT22;15006;48.584;9.186;2023-02-28T06:08:19;-3.70;88.60
27567;DHT22;15006;48.584;9.186;2023-02-28T06:10:45;-3.70;88.70
27567;DHT22;15006;48.584;9.186;2023-02-28T06:13:11;-3.60;88.70
27567;DHT22;15006;48.584;9.186;2023-02-28T06:15:38;-3.60;88.60
27567;DHT22;15006;48.584;9.186;2023-02-28T06:18:04;-3.60;88.70
27567;DHT22;15006;48.584;9.186;2023-02-28T06:20:31;-3.60;88.70
27567;DHT22;15006;48.584;9.186;2023-02-28T06:22:58;-3.60;88.60
27567;DHT22;15006;48.584;9.186;2023-02-28T06:25:26;-3.60;88.50
27567;DHT22;15006;48.584;9.186;2023-02-28T06:27:53;-3.60;88.40
27567;DHT22;15006;48.584;9.186;2023-02-28T06:30:20;-3.60;88.60
27567;DHT22;15006;48.584;9.186;2023-02-28T06:32:51;-3.60;89.00
27567;DHT22;15006;48.584;9.186;2023-02-28T06:35:18;-3.60;88.20
27567;DHT22;15006;48.584;9.186;2023-02-28T06:37:44;-3.50;88.50
27567;DHT22;15006;48.584;9.186;2023-02-28T06:40:11;-3.50;88.50
27567;DHT22;15006;48.584;9.186;2023-02-28T06:42:38;-3.50;88.50
27567;DHT22;15006;48.584;9.186;2023-02-28T06:45:05;-3.50;88.40
27567;DHT22;15006;48.584;9.186;2023-02-28T06:47:35;-3.50;88.50
27567;DHT22;15006;48.584;9.186;2023-02-28T06:50:03;-3.50;88.10
27567;DHT22;15006;48.584;9.186;2023-02-28T06:52:30;-3.50;88.10
27567;DHT22;15006;48.584;9.186;2023-02-28T06:54:56;-3.50;88.10
27567;DHT22;15006;48.584;9.186;2023-02-28T06:57:29;-3.40;88.10
27567;DHT22;15006;48.584;9.186;2023-02-28T07:00:00;-3.40;87.60
27567;DHT22;15006;48.584;9.186;2023-02-28T07:02:29;-3.40;88.00
27567;DHT22;15006;48.584;9.186;2023-02-28T07:04:55;-3.40;87.90
27567;DHT22;15006;48.584;9.186;2023-02-28T07:07:21;-3.40;87.80
27567;DHT22;15006;48.584;9.186;2023-02-28T07:09:47;-3.40;87.90
27567;DHT22;15006;48.584;9.186;2023-02-28T07:12:13;-3.30;87.90
27567;DHT22;15006;48.584;9.186;2023-02-28T07:14:39;-3.30;87.90
27567;DHT22;15006;48.584;9.186;2023-02-28T07:17:07;-3.30;87.90
27567;DHT22;15006;48.584;9.186;2023-02-28T07:19:34;-3.30;87.50
27567;DHT22;15006;48.584;9.186;2023-02-28T07:22:00;-3.20;87.70
27567;DHT22;15006;48.584;9.186;2023-02-28T07:24:27;-3.30;87.50
27567;DHT22;15006;48.584;9.186;2023-02-28T07:26:53;-3.20;87.60
27567;DHT22;15006;48.584;9.186;2023-02-28T07:29:19;-3.20;88.00
27567;DHT22;15006;48.584;9.186;2023-02-28T07:31:45;-3.20;88.20
27567;DHT22;15006;48.584;9.186;2023-02-28T07:34:13;-3.10;88.10
27567;DHT22;15006;48.584;9.186;2023-02-28T07:36:39;-3.10;88.00
27567;DHT22;15006;48.584;9.186;2023-02-28T07:39:05;-3.10;87.80
27567;DHT22;15006;48.584;9.186;2023-02-28T07:41:31;-3.00;87.60
27567;DHT22;15006;48.584;9.186;2023-02-28T07:43:59;-3.00;87.50
27567;DHT22;15006;48.584;9.186;2023-02-28T07:46:26;-3.00;87.30
27567;DHT22;15006;48.584;9.186;2023-02-28T07:48:52;-3.00;87.30
27567;DHT22;15006;48.584;9.186;2023-02-28T07:51:20;-2.90;87.40
27567;DHT22;15006;48.584;9.186;2023-02-28T07:53:47;-2.90;86.90
27567;DHT22;15006;48.584;9.186;2023-02-28T07:56:14;-2.90;87.10
27567;DHT22;15006;48.584;9.186;2023-02-28T07:58:40;-2.90;87.10
27567;DHT22;15006;48.584;9.186;2023-02-28T08:01:08;-2.90;87.10
27567;DHT22;15006;48.584;9.186;2023-02-28T08:03:36;-2.90;87.00
27567;DHT22;15006;48.584;9.186;2023-02-28T08:06:07;-2.90;87.20
27567;DHT22;15006;48.584;9.186;2023-02-28T08:08:34;-2.80;86.50
27567;DHT22;15006;48.584;9.186;2023-02-28T08:11:02;-2.80;87.10
27567;DHT22;15006;48.584;9.186;2023-02-28T08:13:29;-2.80;86.70
27567;DHT22;15006;48.584;9.186;2023-02-28T08:15:56;-2.80;86.70
27567;DHT22;15006;48.584;9.186;2023-02-28T08:18:23;-2.80;87.00
27567;DHT22;15006;48.584;9.186;2023-02-28T08:20:49;-2.70;86.70
27567;DHT22;15006;48.584;9.186;2023-02-28T08:23:15;-2.70;86.70
27567;DHT22;15006;48.584;9.186;2023-02-28T08:25:41;-2.70;86.70
27567;DHT22;15006;48.584;9.186;2023-02-28T08:28:07;-2.70;86.70
27567;DHT22;15006;48.584;9.186;2023-02-28T08:30:33;-2.60;86.30
27567;DHT22;15006;48.584;9.186;2023-02-28T08:32:59;-2.60;86.00
27567;DHT22;15006;48.584;9.186;2023-02-28T08:35:27;-2.60;86.00
27567;DHT22;15006;48.584;9.186;2023-02-28T08:37:53;-2.60;86.00
27567;DHT22;15006;48.584;9.186;2023-02-28T08:40:19;-2.50;86.20
27567;DHT22;15006;48.584;9.186;2023-02-28T08:42:46;-2.60;86.00
27567;DHT22;15006;48.584;9.186;2023-02-28T08:45:14;-2.60;86.00
27567;DHT22;15006;48.584;9.186;2023-02-28T08:47:40;-2.50;85.80
27567;DHT22;15006;48.584;9.186;2023-02-28T08:50:08;-2.50;85.80
27567;DHT22;15006;48.584;9.186;2023-02-28T08:52:34;-2.50;85.80
27567;DHT22;15006;48.584;9.186;2023-02-28T08:55:00;-2.40;85.90
27567;DHT22;15006;48.584;9.186;2023-02-28T08:57:27;-2.40;85.80
27567;DHT22;15006;48.584;9.186;2023-02-28T08:59:53;-2.40;85.70
27567;DHT22;15006;48.584;9.186;2023-02-28T09:02:19;-2.30;85.30
27567;DHT22;15006;48.584;9.186;2023-02-28T09:04:45;-2.30;85.40
27567;DHT22;15006;48.584;9.186;2023-02-28T09:07:12;-2.20;85.30
27567;DHT22;15006;48.584;9.186;2023-02-28T09:09:38;-2.20;85.20
27567;DHT22;15006;48.584;9.186;2023-02-28T09:12:22;-2.10;85.10
27567;DHT22;15006;48.584;9.186;2023-02-28T09:14:48;-2.10;82.30
27567;DHT22;15006;48.584;9.186;2023-02-28T09:17:15;-2.00;85.80
27567;DHT22;15006;48.584;9.186;2023-02-28T09:19:41;-2.00;85.30
27567;DHT22;15006;48.584;9.186;2023-02-28T09:22:08;-2.00;85.10
27567;DHT22;15006;48.584;9.186;2023-02-28T09:24:36;-1.90;84.80
27567;DHT22;15006;48.584;9.186;2023-02-28T09:27:03;-1.90;84.30
27567;DHT22;15006;48.584;9.186;2023-02-28T09:29:30;-1.80;84.10
27567;DHT22;15006;48.584;9.186;2023-02-28T09:31:56;-1.80;83.80
27567;DHT22;15006;48.584;9.186;2023-02-28T09:34:25;-1.80;84.20
27567;DHT22;15006;48.584;9.186;2023-02-28T09:36:51;-1.80;83.70
27567;DHT22;15006;48.584;9.186;2023-02-28T09:39:21;-1.70;83.50
27567;DHT22;15006;48.584;9.186;2023-02-28T09:41:51;-1.70;83.30
27567;DHT22;15006;48.584;9.186;2023-02-28T09:44:30;-1.70;82.60
27567;DHT22;15006;48.584;9.186;2023-02-28T09:47:36;-1.60;82.00
27567;DHT22;15006;48.584;9.186;2023-02-28T09:50:28;-1.60;80.30
27567;DHT22;15006;48.584;9.186;2023-02-28T09:52:59;-1.60;80.70
27567;DHT22;15006;48.584;9.186;2023-02-28T09:55:37;-1.50;82.70
27567;DHT22;15006;48.584;9.186;2023-02-28T10:06:46;-1.30;81.60
27567;DHT22;15006;48.584;9.186;2023-02-28T10:09:24;-1.40;81.30
27567;DHT22;15006;48.584;9.186;2023-02-28T10:11:53;-1.30;81.80
27567;DHT22;15006;48.584;9.186;2023-02-28T10:14:22;-1.30;82.30
27567;DHT22;15006;48.584;9.186;2023-02-28T10:16:59;-1.20;82.00
27567;DHT22;15006;48.584;9.186;2023-02-28T10:19:35;-1.10;81.20
27567;DHT22;15006;48.584;9.186;2023-02-28T10:24:43;-1.00;81.90
27567;DHT22;15006;48.584;9.186;2023-02-28T10:27:21;-1.00;81.30
27567;DHT22;15006;48.584;9.186;2023-02-28T10:29:54;-0.90;81.40
27567;DHT22;15006;48.584;9.186;2023-02-28T10:32:35;-0.80;80.90
27567;DHT22;15006;48.584;9.186;2023-02-28T10:35:26;-0.70;79.50
27567;DHT22;15006;48.584;9.186;2023-02-28T10:37:55;-0.70;79.00
27567;DHT22;15006;48.584;9.186;2023-02-28T10:45:33;-0.20;80.70
27567;DHT22;15006;48.584;9.186;2023-02-28T10:48:04;0.00;82.20
27567;DHT22;15006;48.584;9.186;2023-02-28T10:56:04;0.50;82.20
27567;DHT22;15006;48.584;9.186;2023-02-28T11:01:27;0.70;78.50
27567;DHT22;15006;48.584;9.186;2023-02-28T11:03:59;0.90;81.40
27567;DHT22;15006;48.584;9.186;2023-02-28T11:06:33;1.10;83.00
27567;DHT22;15006;48.584;9.186;2023-02-28T11:09:14;1.40;80.30
27567;DHT22;15006;48.584;9.186;2023-02-28T11:11:55;1.50;80.80
27567;DHT22;15006;48.584;9.186;2023-02-28T11:14:27;1.70;81.60
27567;DHT22;15006;48.584;9.186;2023-02-28T11:16:56;1.80;79.60
27567;DHT22;15006;48.584;9.186;2023-02-28T11:19:38;1.90;79.90
27567;DHT22;15006;48.584;9.186;2023-02-28T11:22:06;2.00;76.90
27567;DHT22;15006;48.584;9.186;2023-02-28T11:24:42;2.10;79.70
27567;DHT22;15006;48.584;9.186;2023-02-28T11:30:00;2.20;75.80
27567;DHT22;15006;48.584;9.186;2023-02-28T11:32:28;2.20;77.30
27567;DHT22;15006;48.584;9.186;2023-02-28T11:37:38;2.20;74.60
27567;DHT22;15006;48.584;9.186;2023-02-28T11:40:18;2.20;77.10
27567;DHT22;15006;48.584;9.186;2023-02-28T11:43:13;2.20;74.50
27567;DHT22;15006;48.584;9.186;2023-02-28T11:51:28;2.20;75.30
27567;DHT22;15006;48.584;9.186;2023-02-28T11:56:57;2.40;77.70
27567;DHT22;15006;48.584;9.186;2023-02-28T12:05:53;3.60;86.00
27567;DHT22;15006;48.584;9.186;2023-02-28T12:08:46;4.30;92.80
27567;DHT22;15006;48.584;9.186;2023-02-28T12:17:16;6.90;83.90
27567;DHT22;15006;48.584;9.186;2023-02-28T12:26:38;8.60;75.80
27567;DHT22;15006;48.584;9.186;2023-02-28T12:29:24;8.90;72.50
27567;DHT22;15006;48.584;9.186;2023-02-28T12:32:14;9.10;70.60
27567;DHT22;15006;48.584;9.186;2023-02-28T12:34:58;9.20;70.40
27567;DHT22;15006;48.584;9.186;2023-02-28T12:37:37;9.30;68.80
27567;DHT22;15006;48.584;9.186;2023-02-28T12:40:14;9.30;68.00
27567;DHT22;15006;48.584;9.186;2023-02-28T12:42:50;9.40;68.80
27567;DHT22;15006;48.584;9.186;2023-02-28T12:45:43;9.40;70.80
27567;DHT22;15006;48.584;9.186;2023-02-28T12:49:08;9.60;69.30
27567;DHT22;15006;48.584;9.186;2023-02-28T12:51:36;9.90;68.40
27567;DHT22;15006;48.584;9.186;2023-02-28T12:54:12;10.30;77.50
27567;DHT22;15006;48.584;9.186;2023-02-28T12:59:25;11.00;71.70
27567;DHT22;15006;48.584;9.186;2023-02-28T13:04:47;11.90;75.10
27567;DHT22;15006;48.584;9.186;2023-02-28T13:10:44;12.60;64.80
27567;DHT22;15006;48.584;9.186;2023-02-28T13:13:21;12.80;62.90
27567;DHT22;15006;48.584;9.186;2023-02-28T13:21:21;13.40;64.10
27567;DHT22;15006;48.584;9.186;2023-02-28T13:26:31;13.10;59.60
27567;DHT22;15006;48.584;9.186;2023-02-28T13:34:38;12.30;56.50
27567;DHT22;15006;48.584;9.186;2023-02-28T13:47:42;13.10;59.60
27567;DHT22;15006;48.584;9.186;2023-02-28T13:58:54;14.00;56.60
27567;DHT22;15006;48.584;9.186;2023-02-28T14:01:55;14.10;59.60
27567;DHT22;15006;48.584;9.186;2023-02-28T14:04:40;14.20;55.80
27567;DHT22;15006;48.584;9.186;2023-02-28T14:07:25;14.40;57.40
27567;DHT22;15006;48.584;9.186;2023-02-28T14:10:08;14.50;57.90
27567;DHT22;15006;48.584;9.186;2023-02-28T14:13:01;14.60;54.30
27567;DHT22;15006;48.584;9.186;2023-02-28T14:15:55;14.70;56.20
27567;DHT22;15006;48.584;9.186;2023-02-28T14:18:33;14.70;55.90
27567;DHT22;15006;48.584;9.186;2023-02-28T14:32:25;15.30;58.60
27567;DHT22;15006;48.584;9.186;2023-02-28T14:34:58;15.30;54.20
27567;DHT22;15006;48.584;9.186;2023-02-28T14:37:36;15.10;54.40
27567;DHT22;15006;48.584;9.186;2023-02-28T14:40:04;15.00;54.30
27567;DHT22;15006;48.584;9.186;2023-02-28T14:42:32;14.80;54.40
27567;DHT22;15006;48.584;9.186;2023-02-28T14:44:58;14.70;54.60
27567;DHT22;15006;48.584;9.186;2023-02-28T14:47:45;14.60;54.60
27567;DHT22;15006;48.584;9.186;2023-02-28T14:50:24;14.50;52.80
27567;DHT22;15006;48.584;9.186;2023-02-28T14:52:54;14.40;52.20
27567;DHT22;15006;48.584;9.186;2023-02-28T14:55:26;14.30;54.70
27567;DHT22;15006;48.584;9.186;2023-02-28T14:58:00;14.10;52.20
27567;DHT22;15006;48.584;9.186;2023-02-28T15:00:34;13.90;53.30
27567;DHT22;15006;48.584;9.186;2023-02-28T15:06:02;13.40;49.70
27567;DHT22;15006;48.584;9.186;2023-02-28T15:08:30;13.20;51.80
27567;DHT22;15006;48.584;9.186;2023-02-28T15:11:11;13.00;55.00
27567;DHT22;15006;48.584;9.186;2023-02-28T15:13:43;12.90;53.50
27567;DHT22;15006;48.584;9.186;2023-02-28T15:16:25;12.80;55.80
27567;DHT22;15006;48.584;9.186;2023-02-28T15:18:59;12.80;53.90
27567;DHT22;15006;48.584;9.186;2023-02-28T15:21:31;12.80;56.40
27567;DHT22;15006;48.584;9.186;2023-02-28T15:26:30;12.90;56.00
27567;DHT22;15006;48.584;9.186;2023-02-28T15:29:01;12.90;53.80
27567;DHT22;15006;48.584;9.186;2023-02-28T15:31:37;12.80;54.50
27567;DHT22;15006;48.584;9.186;2023-02-28T15:34:20;12.70;52.30
27567;DHT22;15006;48.584;9.186;2023-02-28T15:36:59;12.40;51.40
27567;DHT22;15006;48.584;9.186;2023-02-28T15:39:27;12.20;53.70
27567;DHT22;15006;48.584;9.186;2023-02-28T15:42:20;11.90;53.10
27567;DHT22;15006;48.584;9.186;2023-02-28T15:44:48;11.70;50.30
27567;DHT22;15006;48.584;9.186;2023-02-28T15:47:35;11.40;54.10
27567;DHT22;15006;48.584;9.186;2023-02-28T15:50:06;11.20;51.50
27567;DHT22;15006;48.584;9.186;2023-02-28T15:52:41;10.90;54.40
27567;DHT22;15006;48.584;9.186;2023-02-28T15:55:19;10.80;53.60
27567;DHT22;15006;48.584;9.186;2023-02-28T15:57:50;10.60;52.60
27567;DHT22;15006;48.584;9.186;2023-02-28T16:00:22;10.40;54.00
27567;DHT22;15006;48.584;9.186;2023-02-28T16:02:50;10.20;53.50
27567;DHT22;15006;48.584;9.186;2023-02-28T16:07:59;9.70;53.70
27567;DHT22;15006;48.584;9.186;2023-02-28T16:10:43;9.40;54.30
27567;DHT22;15006;48.584;9.186;2023-02-28T16:13:11;9.20;55.90
27567;DHT22;15006;48.584;9.186;2023-02-28T16:15:42;8.90;54.80
27567;DHT22;15006;48.584;9.186;2023-02-28T16:18:11;8.60;55.00
27567;DHT22;15006;48.584;9.186;2023-02-28T16:20:37;8.20;55.00
27567;DHT22;15006;48.584;9.186;2023-02-28T16:23:03;7.90;56.00
27567;DHT22;15006;48.584;9.186;2023-02-28T16:25:40;7.70;56.20
27567;DHT22;15006;48.584;9.186;2023-02-28T16:28:15;7.30;54.30
27567;DHT22;15006;48.584;9.186;2023-02-28T16:30:44;7.00;55.60
27567;DHT22;15006;48.584;9.186;2023-02-28T16:33:11;6.70;56.50
27567;DHT22;15006;48.584;9.186;2023-02-28T16:35:37;6.40;56.70
27567;DHT22;15006;48.584;9.186;2023-02-28T16:38:03;6.10;57.00
27567;DHT22;15006;48.584;9.186;2023-02-28T16:40:34;5.80;57.40
27567;DHT22;15006;48.584;9.186;2023-02-28T16:43:05;5.50;57.10
27567;DHT22;15006;48.584;9.186;2023-02-28T16:45:34;5.20;57.60
27567;DHT22;15006;48.584;9.186;2023-02-28T16:48:00;4.90;58.40
27567;DHT22;15006;48.584;9.186;2023-02-28T16:50:29;4.70;58.70
27567;DHT22;15006;48.584;9.186;2023-02-28T16:52:56;4.30;58.90
27567;DHT22;15006;48.584;9.186;2023-02-28T16:55:23;4.10;59.40
27567;DHT22;15006;48.584;9.186;2023-02-28T16:57:55;3.80;59.60
27567;DHT22;15006;48.584;9.186;2023-02-28T17:00:25;3.50;59.40
27567;DHT22;15006;48.584;9.186;2023-02-28T17:02:53;3.30;60.30
27567;DHT22;15006;48.584;9.186;2023-02-28T17:05:20;3.10;60.80
27567;DHT22;15006;48.584;9.186;2023-02-28T17:07:46;2.90;61.10
27567;DHT22;15006;48.584;9.186;2023-02-28T17:10:16;2.60;61.50
27567;DHT22;15006;48.584;9.186;2023-02-28T17:12:47;2.50;61.80
27567;DHT22;15006;48.584;9.186;2023-02-28T17:15:18;2.20;62.30
27567;DHT22;15006;48.584;9.186;2023-02-28T17:17:46;2.10;62.70
27567;DHT22;15006;48.584;9.186;2023-02-28T17:20:17;1.90;63.20
27567;DHT22;15006;48.584;9.186;2023-02-28T17:22:50;1.70;63.70
27567;DHT22;15006;48.584;9.186;2023-02-28T17:25:17;1.60;64.10
27567;DHT22;15006;48.584;9.186;2023-02-28T17:27:43;1.40;64.50
27567;DHT22;15006;48.584;9.186;2023-02-28T17:30:25;1.20;64.80
27567;DHT22;15006;48.584;9.186;2023-02-28T17:32:54;1.10;64.30
27567;DHT22;15006;48.584;9.186;2023-02-28T17:35:22;1.00;65.60
27567;DHT22;15006;48.584;9.186;2023-02-28T17:37:50;0.80;66.00
27567;DHT22;15006;48.584;9.186;2023-02-28T17:40:19;0.70;66.10
27567;DHT22;15006;48.584;9.186;2023-02-28T17:42:48;0.60;66.40
27567;DHT22;15006;48.584;9.186;2023-02-28T17:45:15;0.50;66.70
27567;DHT22;15006;48.584;9.186;2023-02-28T17:47:43;0.40;67.10
27567;DHT22;15006;48.584;9.186;2023-02-28T17:50:20;0.30;67.30
27567;DHT22;15006;48.584;9.186;2023-02-28T17:52:48;0.20;67.20
27567;DHT22;15006;48.584;9.186;2023-02-28T17:55:15;0.10;68.00
27567;DHT22;15006;48.584;9.186;2023-02-28T17:57:42;0.00;68.20
27567;DHT22;15006;48.584;9.186;2023-02-28T18:00:11;-0.10;68.40
27567;DHT22;15006;48.584;9.186;2023-02-28T18:02:39;-0.10;68.50
27567;DHT22;15006;48.584;9.186;2023-02-28T18:05:06;-0.20;68.80
27567;DHT22;15006;48.584;9.186;2023-02-28T18:07:33;-0.30;69.10
27567;DHT22;15006;48.584;9.186;2023-02-28T18:09:59;-0.30;69.30
27567;DHT22;15006;48.584;9.186;2023-02-28T18:12:25;-0.40;69.40
27567;DHT22;15006;48.584;9.186;2023-02-28T18:14:51;-0.50;69.50
27567;DHT22;15006;48.584;9.186;2023-02-28T18:17:16;-0.50;69.80
27567;DHT22;15006;48.584;9.186;2023-02-28T18:19:42;-0.60;69.90
27567;DHT22;15006;48.584;9.186;2023-02-28T18:22:08;-0.70;70.00
27567;DHT22;15006;48.584;9.186;2023-02-28T18:24:34;-0.70;70.10
27567;DHT22;15006;48.584;9.186;2023-02-28T18:27:01;-0.80;70.30
27567;DHT22;15006;48.584;9.186;2023-02-28T18:29:28;-0.80;70.50
27567;DHT22;15006;48.584;9.186;2023-02-28T18:31:56;-0.90;71.30
27567;DHT22;15006;48.584;9.186;2023-02-28T18:34:24;-0.90;70.60
27567;DHT22;15006;48.584;9.186;2023-02-28T18:36:51;-1.00;70.90
27567;DHT22;15006;48.584;9.186;2023-02-28T18:39:18;-1.00;71.10
27567;DHT22;15006;48.584;9.186;2023-02-28T18:41:44;-1.10;71.20
27567;DHT22;15006;48.584;9.186;2023-02-28T18:44:11;-1.10;71.40
27567;DHT22;15006;48.584;9.186;2023-02-28T18:46:39;-1.10;71.60